DIRECCIÓN GENERAL DE AERONÁUTICA CIVIL
DIRECCIÓN METEOROLÓGICA DE CHILE
INFORMACIÓN METAR Y TAF

FIR PUERTO MONTT

Estación: SCQP
METAR SCQP 311700Z 15004KT 110V250 9999 FEW015 SCT200 13/08 Q1016=

TAF SCQP 311647Z 3118/0118 VRB02KT 9999 FEW015 SCT100 TX14/3119Z TN04/0110Z BECMG 3119/3121 04005KT BECMG 3123/0101 VRB02KT 1500 BR BCFG SCT002 BKN010 BECMG 0103/0105 00000KT 0400 FG OVC002 TEMPO 0107/0110 VRB02KT 5000 BR BKN08 BECMG 0115/0117 01005KT 9999 NSW SCT020 BKN060=

Estación: SCVD
METAR SCVD 311700Z 09004KT 040V120 9999 OVC019 11/08 Q1017=

TAF SCVD 311059Z 3112/0100 VRB02KT 3000 BR BKN005 TN06/3112Z TX13/3119Z BECMG 3115/3117 00000KT 9999 NSW SCT030 TEMPO 3122/0100 3000 BR BKN003=

Estación: SCJO
METAR SCJO 311800Z 20004KT 160V250 9999 SCT013 BKN020 12/11 Q1017=

TAF AMD SCJO 311340Z 3113/0100 VRB02KT 0500 FG OVC004 TX13/3118Z TN08/0100Z BECMG 3116/3118 15005KT 9999 NSW FEW015 BKN050=

Estación: SCTE
METAR SCTE 311800Z 15004KT 9999 SCT010 BKN200 11/09 Q1017 NOSIG=

TAF SCTE 311650Z 3118/0118 16005KT 9999 SCT017 BKN070 TX13/3119Z TN05/0110Z BECMG 3122/0100 VRB02KT 3000 BR BKN004 OVC010 TEMPO 0101/0104 0600 FG OVC004 BECMG 0105/0107 00000KT 0300 FG OVC002 BECMG 0114/0116 5000 BR OVC006=

Estación: SCPQ
METAR SCPQ 311800Z 18006KT CAVOK 12/07 Q1017=

TAF SCPQ 301045Z 3012/3100 VRB01KT 2000 BR BKN004 TN10/3012Z TX13/ 3020Z TEMPO 3012/3013 0800 FG VV002 BECMG 3015/3017 10004KT 8000 SCT015 BKN030=

Estación: SCON
METAR SCON 311700Z 24004KT CAVOK 12/08 Q1018=

TAF SCON NIL=

Estación: SCTN
METAR SCTN 311700Z VRB02KT CAVOK 12/09 Q1017=

TAF SCTN 301045Z 3012/3100 VRB02KT CAVOK TN08/3012Z TX12/3020Z BECMG 3018/3020 07006KT=

Estación: SCFT
METAR SCFT 311800Z 30003KT 260V330 9999 4000W FU HZ SCT023 OVC046 07/06 Q1021=

TAF SCFT NIL=

Estación: SCAP
METAR SCAP 311700Z /////KT 9999 SCT025 OVC030 07/06 Q1027=

TAF SCAP NIL=

Estación: SCMK
METAR SCMK 311700Z 20008KT CAVOK 12/08 Q1018=

TAF SCMK 301045Z 3012/3100 VRB01KT 8000 BKN025 TN09/3012Z TX11/3020Z TEMPO 3012/3016 2000 BR BECMG 3018/3020 13005KT=

Estación: SCAS
METAR SCAS 311700Z 09008KT 9999 BKN040 12/05 Q1023=

TAF SCAS NIL=

Estación: SCCY
METAR SCCY 311800Z 03005KT 9999 FEW025 BKN030 OVC070 09/05 Q1023=

TAF SCCY 311048Z 3112/0100 00000KT 1500 BR BKN003 TN04/3112Z TX08/3120Z BECMG 3116/3118 9999 SCT020=

Estación: SCBA
METAR SCBA 311800Z 08006KT 9999 SCT030 OVC100 08/02 Q1023=

TAF SCBA 311648Z 3118/0118 12005KT 9999 SCT030 OVC080 TX09/3119Z TN00/0110Z BECMG 3123/0101 VRB02KT 8000 BKN050 TEMPO 0108/0113 00000KT 2000 BR OVC006 BECMG 0113/0115 9999 SCT030=

Estación: SCCC
METAR SCCC 311700Z 05003KT 9999 SCT020 BKN040 08/05 Q1026=

TAF SCCC NIL=

Estación: SCHR
METAR SCHR 311700Z 09006KT 9999 SCT030 08/05 Q1022=

TAF SCHR 311052Z 3112/0100 VRB03KT CAVOK TN04/3112Z TX09/3119Z TEMPO 3112/3116 05005KT TEMPO 3112/3114 0500 FG SCT003 BKN008 BECMG 3119/3121 3000 BR SCT005=


Volver